Iverson, Texas
Current Conditions -  °F | °C
As of 10:55 AM on Monday 22 Dec 2014 (Local Time) from KINJ Reporting Station
Clear Clear  
Wind Chill: 64°   Ceiling: Unl
Heat Index: 64°   Visibility: 10mi
Dew Point: 49°   Wind: 17mph
Humidity: 57%   Direction: 230°SW
Pressure: 29.63"   Gusts: NA
Location:  32.1748°N, 96.9849°W
Report Text: KINJ 221655Z AUTO 23015KT 10SM CLR 18/09 A2963 RMK AO2 T01790093
Loading
Personal Weather Stations






























Interactive Weather Map New forecast layout! Learn more

10-Day Weather Forecast

Advertisements
Track Severe Weather on mobile